createdAt,value
2022-10-19T00:02:19.903Z,9.57
2022-10-19T00:05:05.162Z,9.47
2022-10-19T00:07:50.217Z,9.40
2022-10-19T00:10:35.521Z,9.48
2022-10-19T00:13:20.264Z,9.47
2022-10-19T00:16:12.936Z,9.38
2022-10-19T00:18:59.386Z,9.21
2022-10-19T00:21:44.930Z,9.21
2022-10-19T00:24:29.601Z,9.31
2022-10-19T00:27:14.483Z,9.28
2022-10-19T00:29:59.680Z,9.13
2022-10-19T00:32:44.823Z,9.13
2022-10-19T00:35:30.449Z,9.17
2022-10-19T00:38:19.105Z,9.01
2022-10-19T00:41:04.078Z,8.96
2022-10-19T00:43:57.946Z,8.83
2022-10-19T00:46:44.970Z,8.92
2022-10-19T00:49:33.760Z,8.96
2022-10-19T00:52:21.627Z,8.86
2022-10-19T00:55:08.869Z,8.91
2022-10-19T00:57:54.183Z,8.96
2022-10-19T01:00:39.348Z,9.01
2022-10-19T01:03:24.858Z,9.06
2022-10-19T01:06:01.220Z,8.96
2022-10-19T01:08:46.130Z,8.87
2022-10-19T01:11:39.827Z,8.73
2022-10-19T01:14:58.967Z,8.78
2022-10-19T01:18:04.878Z,8.50
2022-10-19T01:21:01.021Z,8.29
2022-10-19T01:24:09.257Z,8.38
2022-10-19T01:27:16.050Z,8.50
2022-10-19T01:30:02.817Z,8.45
2022-10-19T01:33:03.404Z,8.40
2022-10-19T01:36:02.570Z,8.51
2022-10-19T01:38:58.478Z,8.43
2022-10-19T01:42:05.860Z,8.50
2022-10-19T01:45:16.963Z,8.51
2022-10-19T01:48:09.910Z,8.57
2022-10-19T01:51:39.351Z,8.64
2022-10-19T01:54:27.355Z,8.66
2022-10-19T01:57:17.635Z,8.71
2022-10-19T02:00:07.348Z,8.82
2022-10-19T02:02:54.449Z,8.83
2022-10-19T02:05:41.661Z,8.81
2022-10-19T02:08:30.888Z,8.85
2022-10-19T02:11:16.915Z,8.68
2022-10-19T02:14:09.344Z,8.68
2022-10-19T02:17:08.011Z,8.70
2022-10-19T02:19:53.990Z,8.58
2022-10-19T02:22:39.350Z,8.54
2022-10-19T02:25:25.296Z,8.33
2022-10-19T02:28:10.590Z,8.39
2022-10-19T02:30:56.058Z,8.34
2022-10-19T02:33:40.915Z,8.49
2022-10-19T02:36:26.102Z,8.32
2022-10-19T02:39:11.114Z,8.40
2022-10-19T02:42:16.933Z,8.54
2022-10-19T02:45:07.856Z,8.73
2022-10-19T02:47:58.186Z,8.55
2022-10-19T02:50:44.674Z,8.23
2022-10-19T02:53:29.459Z,8.55
2022-10-19T02:56:14.238Z,8.36
2022-10-19T02:58:59.507Z,8.64
2022-10-19T03:01:44.607Z,8.64
2022-10-19T03:04:29.715Z,8.61
2022-10-19T03:07:17.258Z,8.33
2022-10-19T03:10:02.334Z,8.41
2022-10-19T03:12:47.161Z,8.07
2022-10-19T03:15:32.070Z,8.34
2022-10-19T03:18:17.239Z,8.31
2022-10-19T03:21:07.796Z,8.38
2022-10-19T03:23:52.540Z,8.22
2022-10-19T03:26:37.895Z,8.08
2022-10-19T03:29:22.881Z,8.28
2022-10-19T03:32:07.780Z,8.42
2022-10-19T03:34:52.858Z,8.43
2022-10-19T03:37:37.985Z,8.54
2022-10-19T03:40:23.033Z,8.46
2022-10-19T03:43:07.843Z,8.37
2022-10-19T03:45:52.980Z,8.57
2022-10-19T03:48:38.093Z,8.41
2022-10-19T03:51:26.642Z,8.52
2022-10-19T03:54:15.044Z,8.47
2022-10-19T03:57:00.174Z,8.48
2022-10-19T03:59:45.280Z,8.24
2022-10-19T04:02:30.783Z,8.38
2022-10-19T04:05:15.724Z,8.33
2022-10-19T04:08:00.758Z,8.34
2022-10-19T04:10:45.830Z,8.30
2022-10-19T04:13:31.489Z,8.29
2022-10-19T04:16:17.137Z,8.47
2022-10-19T04:19:02.015Z,8.22
2022-10-19T04:21:49.009Z,8.46
2022-10-19T04:24:33.829Z,8.57
2022-10-19T04:27:19.095Z,8.37
2022-10-19T04:30:04.791Z,8.46
2022-10-19T04:32:49.950Z,8.35
2022-10-19T04:35:35.247Z,8.47
2022-10-19T04:38:20.323Z,8.51
2022-10-19T04:41:07.227Z,8.46
2022-10-19T04:43:57.942Z,8.57
2022-10-19T04:46:43.022Z,8.73
2022-10-19T04:49:28.056Z,8.60
2022-10-19T04:52:12.818Z,8.81
2022-10-19T04:54:57.944Z,8.83
2022-10-19T04:57:43.358Z,8.72
2022-10-19T05:00:28.209Z,8.64
2022-10-19T05:03:13.004Z,8.81
2022-10-19T05:05:59.198Z,8.85
2022-10-19T05:08:44.090Z,8.87
2022-10-19T05:11:29.474Z,8.87
2022-10-19T05:14:14.585Z,8.90
2022-10-19T05:16:59.795Z,8.81
2022-10-19T05:19:44.880Z,8.82
2022-10-19T05:22:30.108Z,8.90
2022-10-19T05:25:15.562Z,8.93
2022-10-19T05:28:00.672Z,8.97
2022-10-19T05:30:48.921Z,9.02
2022-10-19T05:33:33.996Z,8.92
2022-10-19T05:36:26.055Z,9.07
2022-10-19T05:39:16.820Z,9.11
2022-10-19T05:42:02.177Z,9.11
2022-10-19T05:44:47.141Z,9.22
2022-10-19T05:47:34.041Z,9.02
2022-10-19T05:50:19.091Z,8.96
2022-10-19T05:53:03.879Z,9.01
2022-10-19T05:55:49.053Z,8.84
2022-10-19T05:58:35.259Z,8.97
2022-10-19T06:01:20.442Z,8.96
2022-10-19T06:04:07.145Z,9.03
2022-10-19T06:06:52.255Z,8.85
2022-10-19T06:09:37.462Z,8.81
2022-10-19T06:12:24.941Z,8.90
2022-10-19T06:15:10.536Z,8.74
2022-10-19T06:17:55.732Z,9.01
2022-10-19T06:20:42.329Z,8.89
2022-10-19T06:23:27.486Z,8.31
2022-10-19T06:26:14.208Z,8.56
2022-10-19T06:29:00.491Z,8.80
2022-10-19T06:31:46.336Z,8.79
2022-10-19T06:34:31.118Z,8.57
2022-10-19T06:37:16.271Z,8.41
2022-10-19T06:40:04.854Z,8.66
2022-10-19T06:42:51.788Z,8.27
2022-10-19T06:45:38.374Z,8.25
2022-10-19T06:48:23.563Z,8.25
2022-10-19T06:51:08.553Z,8.28
2022-10-19T06:53:57.105Z,8.20
2022-10-19T06:56:42.694Z,8.29
2022-10-19T06:59:27.707Z,8.33
2022-10-19T07:02:13.136Z,8.20
2022-10-19T07:04:58.159Z,8.32
2022-10-19T07:07:43.464Z,8.41
2022-10-19T07:10:28.294Z,8.47
2022-10-19T07:13:13.905Z,8.54
2022-10-19T07:16:07.527Z,8.67
2022-10-19T07:18:53.423Z,8.68
2022-10-19T07:21:41.511Z,8.70
2022-10-19T07:24:26.436Z,8.58
2022-10-19T07:27:11.698Z,8.31
2022-10-19T07:29:56.679Z,8.71
2022-10-19T07:32:45.968Z,8.70
2022-10-19T07:35:32.322Z,8.64
2022-10-19T07:38:17.168Z,8.52
2022-10-19T07:41:05.060Z,8.77
2022-10-19T07:43:51.191Z,8.54
2022-10-19T07:46:39.294Z,8.65
2022-10-19T07:49:24.079Z,8.90
2022-10-19T07:52:08.917Z,8.77
2022-10-19T07:54:55.316Z,8.90
2022-10-19T07:57:42.567Z,9.10
2022-10-19T08:00:29.952Z,9.06
2022-10-19T08:06:19.916Z,9.11
2022-10-19T08:09:05.746Z,9.41
2022-10-19T08:11:50.860Z,9.35
2022-10-19T08:14:36.043Z,9.41
2022-10-19T08:17:21.214Z,9.27
2022-10-19T08:20:07.587Z,9.09
2022-10-19T08:22:56.448Z,9.10
2022-10-19T08:25:43.869Z,9.09
2022-10-19T08:28:28.672Z,8.68
2022-10-19T08:31:16.507Z,8.79
2022-10-19T08:34:02.080Z,8.78
2022-10-19T08:36:47.594Z,8.63
2022-10-19T08:39:32.532Z,8.94
2022-10-19T08:42:27.536Z,8.76
2022-10-19T08:45:31.295Z,8.98
2022-10-19T08:48:29.236Z,8.92
2022-10-19T08:51:14.303Z,8.92
2022-10-19T08:54:04.752Z,9.42
2022-10-19T08:57:24.960Z,9.55
2022-10-19T09:00:28.656Z,9.49
2022-10-19T09:04:01.298Z,9.33
2022-10-19T09:06:51.330Z,9.52
2022-10-19T09:09:43.906Z,9.20
2022-10-19T09:12:41.216Z,9.87
2022-10-19T09:15:38.450Z,9.85
2022-10-19T09:18:32.192Z,10.12
2022-10-19T09:21:31.048Z,10.21
2022-10-19T09:24:37.571Z,11.09
2022-10-19T09:27:25.602Z,11.92
2022-10-19T09:30:19.161Z,11.57
2022-10-19T09:33:15.259Z,11.51
2022-10-19T09:36:03.018Z,12.12
2022-10-19T09:38:48.225Z,11.61
2022-10-19T09:41:33.667Z,12.60
2022-10-19T09:44:19.250Z,13.05
2022-10-19T09:47:32.566Z,11.84
2022-10-19T09:50:26.558Z,11.43
2022-10-19T09:53:20.110Z,11.71
2022-10-19T09:56:07.900Z,12.04
2022-10-19T09:58:57.114Z,11.78
2022-10-19T10:01:43.808Z,11.79
2022-10-19T10:04:30.252Z,11.55
2022-10-19T10:07:18.582Z,11.72
2022-10-19T10:10:11.289Z,11.82
2022-10-19T10:12:59.316Z,11.69
2022-10-19T10:15:49.450Z,12.81
2022-10-19T10:18:49.804Z,13.35
2022-10-19T10:21:45.501Z,12.52
2022-10-19T10:24:32.490Z,12.17
2022-10-19T10:27:30.302Z,12.27
2022-10-19T10:30:18.314Z,12.55
2022-10-19T10:33:15.752Z,13.28
2022-10-19T10:36:09.940Z,12.80
2022-10-19T10:39:08.221Z,13.32
2022-10-19T10:41:54.035Z,13.55
2022-10-19T10:44:47.651Z,13.27
2022-10-19T10:47:33.281Z,12.96
2022-10-19T10:50:25.138Z,13.20
2022-10-19T10:53:43.140Z,13.17
2022-10-19T10:56:30.138Z,12.95
2022-10-19T10:59:29.708Z,12.79
2022-10-19T11:02:31.651Z,13.42
2022-10-19T11:05:24.515Z,13.44
2022-10-19T11:08:15.908Z,13.31
2022-10-19T11:11:30.337Z,13.55
2022-10-19T11:14:37.335Z,13.86
2022-10-19T11:17:27.940Z,14.25
2022-10-19T11:20:16.228Z,14.41
2022-10-19T11:23:13.483Z,14.60
2022-10-19T11:26:19.578Z,15.21
2022-10-19T11:29:38.479Z,15.03
2022-10-19T11:32:47.877Z,16.39
2022-10-19T11:35:36.017Z,15.66
2022-10-19T11:38:42.999Z,14.32
2022-10-19T11:42:15.281Z,13.73
2022-10-19T11:45:15.758Z,13.63
2022-10-19T11:48:40.382Z,13.83
2022-10-19T11:51:57.281Z,13.99
2022-10-19T11:55:07.466Z,14.48
2022-10-19T11:58:07.449Z,14.54
2022-10-19T12:01:29.470Z,14.51
2022-10-19T12:04:28.515Z,14.61
2022-10-19T12:07:49.881Z,14.41
2022-10-19T12:11:06.585Z,14.22
2022-10-19T12:13:56.827Z,14.39
2022-10-19T12:16:46.195Z,14.51
2022-10-19T12:19:40.729Z,14.81
2022-10-19T12:22:28.995Z,14.65
2022-10-19T12:25:17.429Z,14.78
2022-10-19T12:28:03.726Z,14.96
2022-10-19T12:30:49.595Z,15.17
2022-10-19T12:33:53.347Z,15.44
2022-10-19T12:36:46.931Z,15.09
2022-10-19T12:39:53.400Z,15.03
2022-10-19T12:42:52.750Z,15.16
2022-10-19T12:46:02.791Z,14.97
2022-10-19T12:49:26.259Z,14.98
2022-10-19T12:52:12.500Z,14.99
2022-10-19T12:55:34.890Z,15.37
2022-10-19T12:58:22.806Z,15.59
2022-10-19T13:01:11.707Z,15.61
2022-10-19T13:04:19.196Z,15.43
2022-10-19T13:07:08.179Z,15.30
2022-10-19T13:10:01.632Z,15.23
2022-10-19T13:12:47.876Z,15.22
2022-10-19T13:15:35.892Z,15.36
2022-10-19T13:18:58.428Z,15.29
2022-10-19T13:21:48.918Z,15.34
2022-10-19T13:24:36.303Z,15.46
2022-10-19T13:27:25.067Z,15.40
2022-10-19T13:30:38.264Z,15.49
2022-10-19T13:33:28.269Z,15.57
2022-10-19T13:36:13.822Z,15.54
2022-10-19T13:38:58.840Z,15.47
2022-10-19T13:41:46.867Z,15.56
2022-10-19T13:44:37.374Z,15.56
2022-10-19T13:50:40.066Z,15.57
2022-10-19T13:53:45.447Z,15.58
2022-10-19T13:56:56.177Z,15.65
2022-10-19T14:00:00.101Z,15.62
2022-10-19T14:02:50.868Z,15.60
2022-10-19T14:05:51.532Z,15.59
2022-10-19T14:09:04.833Z,15.59
2022-10-19T14:11:52.852Z,15.59
2022-10-19T14:14:43.321Z,15.62
2022-10-19T14:17:34.047Z,15.71
2022-10-19T14:20:25.788Z,15.72
2022-10-19T14:23:24.012Z,15.74
2022-10-19T14:26:20.425Z,15.74
2022-10-19T14:29:05.746Z,15.72
2022-10-19T14:31:52.799Z,15.69
2022-10-19T14:34:46.883Z,15.77
2022-10-19T14:37:32.584Z,15.77
2022-10-19T14:40:27.811Z,15.77
2022-10-19T14:43:23.515Z,15.73
2022-10-19T14:46:08.225Z,15.68
2022-10-19T14:49:00.641Z,15.72
2022-10-19T14:51:50.928Z,15.81
2022-10-19T14:54:44.308Z,15.88
2022-10-19T14:57:34.992Z,15.96
2022-10-19T15:00:22.952Z,16.01
2022-10-19T15:03:12.411Z,16.05
2022-10-19T15:06:04.171Z,16.14
2022-10-19T15:11:46.695Z,16.19
2022-10-19T15:14:32.283Z,16.22
2022-10-19T15:17:27.020Z,16.24
2022-10-19T15:20:26.203Z,16.16
2022-10-19T15:23:29.734Z,16.09
2022-10-19T15:26:26.289Z,15.93
2022-10-19T15:29:21.889Z,15.84
2022-10-19T15:32:21.464Z,15.72
2022-10-19T15:35:12.844Z,15.65
2022-10-19T15:38:03.913Z,15.49
2022-10-19T15:40:49.382Z,15.38
2022-10-19T15:43:43.187Z,15.27
2022-10-19T15:46:55.907Z,15.21
2022-10-19T15:49:40.744Z,15.15
2022-10-19T15:52:29.066Z,15.05
2022-10-19T15:55:17.180Z,14.99
2022-10-19T15:58:02.189Z,14.85
2022-10-19T16:00:47.456Z,14.79
2022-10-19T16:03:32.612Z,14.69
2022-10-19T16:06:19.433Z,14.58
2022-10-19T16:09:04.733Z,14.61
2022-10-19T16:11:56.162Z,14.56
2022-10-19T16:14:41.427Z,14.54
2022-10-19T16:17:26.930Z,14.60
2022-10-19T16:20:12.659Z,14.60
2022-10-19T16:22:58.147Z,14.55
2022-10-19T16:25:43.089Z,14.42
2022-10-19T16:28:27.913Z,14.39
2022-10-19T16:31:13.015Z,14.32
2022-10-19T16:33:58.113Z,14.26
2022-10-19T16:36:43.410Z,14.12
2022-10-19T16:39:28.528Z,13.97
2022-10-19T16:42:13.643Z,14.14
2022-10-19T16:44:58.954Z,14.19
2022-10-19T16:47:45.209Z,14.04
2022-10-19T16:50:30.333Z,14.01
2022-10-19T16:53:14.998Z,13.86
2022-10-19T16:56:08.301Z,13.85
2022-10-19T16:58:55.151Z,13.67
2022-10-19T17:01:41.751Z,13.52
2022-10-19T17:04:26.887Z,13.53
2022-10-19T17:07:12.838Z,13.44
2022-10-19T17:09:57.924Z,13.38
2022-10-19T17:12:43.032Z,13.40
2022-10-19T17:15:42.468Z,13.38
2022-10-19T17:18:28.136Z,13.32
2022-10-19T17:21:17.340Z,13.42
2022-10-19T17:24:03.100Z,13.42
2022-10-19T17:26:49.281Z,13.37
2022-10-19T17:29:34.514Z,13.37
2022-10-19T17:32:19.324Z,13.32
2022-10-19T17:35:04.973Z,13.30
2022-10-19T17:37:50.268Z,13.25
2022-10-19T17:40:35.331Z,13.21
2022-10-19T17:43:21.738Z,13.22
2022-10-19T17:46:09.144Z,13.22
2022-10-19T17:48:56.054Z,13.19
2022-10-19T17:51:40.997Z,13.16
2022-10-19T17:54:26.267Z,13.08
2022-10-19T17:57:11.556Z,13.04
2022-10-19T17:59:56.674Z,12.94
2022-10-19T18:02:44.285Z,12.97
2022-10-19T18:05:29.064Z,12.95
2022-10-19T18:08:14.082Z,12.89
2022-10-19T18:11:01.188Z,12.82
2022-10-19T18:13:47.788Z,12.82
2022-10-19T18:16:35.442Z,12.71
2022-10-19T18:19:20.504Z,12.75
2022-10-19T18:22:05.634Z,12.75
2022-10-19T18:24:50.735Z,12.69
2022-10-19T18:27:36.196Z,12.70
2022-10-19T18:30:21.349Z,12.66
2022-10-19T18:33:06.508Z,12.61
2022-10-19T18:35:52.219Z,12.57
2022-10-19T18:38:38.536Z,12.50
2022-10-19T18:41:25.409Z,12.46
2022-10-19T18:44:12.951Z,12.40
2022-10-19T18:46:58.070Z,12.30
2022-10-19T18:49:43.199Z,12.27
2022-10-19T18:52:27.975Z,12.22
2022-10-19T18:55:13.204Z,12.22
2022-10-19T18:57:58.096Z,12.19
2022-10-19T19:00:45.583Z,12.13
2022-10-19T19:03:31.018Z,12.07
2022-10-19T19:06:29.942Z,12.03
2022-10-19T19:09:15.246Z,11.99
2022-10-19T19:12:01.028Z,11.93
2022-10-19T19:14:46.112Z,11.91
2022-10-19T19:17:31.260Z,11.92
2022-10-19T19:20:16.317Z,11.82
2022-10-19T19:23:01.466Z,11.78
2022-10-19T19:25:46.654Z,11.77
2022-10-19T19:28:31.784Z,11.77
2022-10-19T19:31:16.527Z,11.70
2022-10-19T19:34:03.243Z,11.64
2022-10-19T19:36:49.035Z,11.62
2022-10-19T19:39:34.427Z,11.61
2022-10-19T19:42:20.802Z,11.57
2022-10-19T19:45:07.661Z,11.57
2022-10-19T19:47:52.515Z,11.52
2022-10-19T19:50:38.266Z,11.52
2022-10-19T19:53:23.127Z,11.44
2022-10-19T19:56:10.144Z,11.42
2022-10-19T19:58:57.343Z,11.41
2022-10-19T20:01:42.638Z,11.38
2022-10-19T20:04:27.819Z,11.36
2022-10-19T20:07:12.957Z,11.32
2022-10-19T20:09:58.047Z,11.29
2022-10-19T20:12:47.012Z,11.27
2022-10-19T20:15:32.135Z,11.22
2022-10-19T20:18:17.268Z,11.20
2022-10-19T20:21:03.362Z,11.18
2022-10-19T20:23:48.419Z,11.16
2022-10-19T20:26:33.358Z,11.10
2022-10-19T20:29:18.208Z,11.06
2022-10-19T20:32:03.439Z,11.06
2022-10-19T20:34:48.516Z,10.98
2022-10-19T20:37:33.882Z,10.93
2022-10-19T20:40:19.077Z,10.95
2022-10-19T20:43:04.060Z,10.96
2022-10-19T20:45:49.147Z,10.95
2022-10-19T20:48:34.652Z,10.91
2022-10-19T20:51:30.530Z,10.88
2022-10-19T20:54:17.011Z,10.87
2022-10-19T20:57:02.445Z,10.86
2022-10-19T20:59:48.852Z,10.85
2022-10-19T21:02:33.941Z,10.84
2022-10-19T21:05:19.039Z,10.80
2022-10-19T21:08:04.357Z,10.81
2022-10-19T21:10:49.183Z,10.79
2022-10-19T21:13:34.319Z,10.74
2022-10-19T21:16:21.172Z,10.72
2022-10-19T21:19:10.109Z,10.69
2022-10-19T21:22:03.060Z,10.67
2022-10-19T21:24:47.825Z,10.72
2022-10-19T21:27:33.435Z,10.67
2022-10-19T21:30:18.449Z,10.67
2022-10-19T21:33:03.563Z,10.66
2022-10-19T21:38:38.809Z,10.73
2022-10-19T21:41:26.398Z,10.71
2022-10-19T21:44:11.866Z,10.71
2022-10-19T21:46:56.959Z,10.65
2022-10-19T21:49:42.015Z,10.61
2022-10-19T21:52:26.750Z,10.60
2022-10-19T21:55:12.078Z,10.61
2022-10-19T21:57:57.250Z,10.60
2022-10-19T22:00:43.445Z,10.55
2022-10-19T22:03:28.303Z,10.53
2022-10-19T22:06:13.983Z,10.45
2022-10-19T22:08:59.991Z,10.48
2022-10-19T22:11:45.020Z,10.51
2022-10-19T22:14:30.022Z,10.59
2022-10-19T22:17:14.980Z,10.63
2022-10-19T22:20:00.138Z,10.64
2022-10-19T22:22:45.271Z,10.66
2022-10-19T22:25:31.188Z,10.66
2022-10-19T22:28:16.122Z,10.66
2022-10-19T22:31:01.203Z,10.70
2022-10-19T22:33:46.288Z,10.71
2022-10-19T22:36:31.352Z,10.82
2022-10-19T22:39:16.550Z,10.81
2022-10-19T22:42:01.712Z,10.81
2022-10-19T22:44:46.839Z,10.90
2022-10-19T22:47:32.144Z,10.92
2022-10-19T22:50:17.104Z,10.97
2022-10-19T22:53:02.384Z,11.03
2022-10-19T22:55:47.420Z,11.00
2022-10-19T22:58:32.443Z,11.02
2022-10-19T23:01:17.730Z,10.97
2022-10-19T23:04:02.802Z,10.91
2022-10-19T23:06:48.007Z,10.97
2022-10-19T23:09:33.110Z,10.98
2022-10-19T23:12:18.153Z,11.04
2022-10-19T23:15:03.561Z,11.04
2022-10-19T23:17:48.494Z,11.03
2022-10-19T23:20:33.674Z,11.04
2022-10-19T23:23:18.388Z,11.06
2022-10-19T23:26:10.000Z,11.08
2022-10-19T23:28:54.783Z,11.08
2022-10-19T23:31:39.976Z,11.10
2022-10-19T23:34:24.937Z,11.15
2022-10-19T23:37:09.981Z,11.15
2022-10-19T23:39:55.074Z,11.16
2022-10-19T23:42:40.432Z,11.19
2022-10-19T23:45:25.183Z,11.24
2022-10-19T23:48:10.325Z,11.27
2022-10-19T23:50:58.169Z,11.31
2022-10-19T23:53:45.915Z,11.39
2022-10-19T23:56:31.147Z,11.41
2022-10-19T23:59:16.187Z,11.42
